Terminal Aerodrome Forecast
Issued by NWS Denver/Boulder, CO

Home | Current Version | Previous Version | Text Only | Print | Product List | Glossary On
Versions: 1 2 3 4 5 6 7 8 9 10 11 12 13 14 15 16 17 18 19 20 21 22 23 24 25 26 27 28 29 30 31 32 33 34 35 36 37 38 39 40 41 42 43 44 45 46 47 48 49 50
508
FTUS45 KBOU 191016 AAB
TAFDEN
TAF AMD
KDEN 191016Z 1910/2012 20015KT P6SM SCT220
     FM191400 23012KT P6SM FEW140 BKN220
     FM191900 25018G28KT P6SM FEW120 SCT220
     FM200200 24014KT P6SM FEW120 SCT200
     FM200500 36015G25KT P6SM SCT080 SCT120=

USA.gov is the U.S. government's official web portal to all federal, state and local government web resources and services.